createdAt,value
2019-04-11T00:01:14.825Z,28.17
2019-04-11T00:03:43.854Z,33.63
2019-04-11T00:06:12.665Z,24.30
2019-04-11T00:08:41.924Z,23.27
2019-04-11T00:11:11.541Z,24.33
2019-04-11T00:13:41.111Z,31.70
2019-04-11T00:16:09.839Z,21.60
2019-04-11T00:18:38.788Z,24.20
2019-04-11T00:21:07.351Z,25.50
2019-04-11T00:23:36.463Z,27.47
2019-04-11T00:26:06.488Z,26.33
2019-04-11T00:28:35.101Z,28.53
2019-04-11T00:31:04.294Z,25.37
2019-04-11T00:33:33.978Z,23.93
2019-04-11T00:36:02.656Z,29.43
2019-04-11T00:38:32.039Z,30.40
2019-04-11T00:41:01.607Z,25.77
2019-04-11T00:43:35.881Z,24.53
2019-04-11T00:46:01.792Z,24.10
2019-04-11T00:48:30.778Z,27.23
2019-04-11T00:50:59.367Z,25.73
2019-04-11T00:53:27.991Z,27.03
2019-04-11T00:55:56.770Z,25.67
2019-04-11T00:58:25.644Z,24.80
2019-04-11T01:00:55.525Z,26.80
2019-04-11T01:03:24.290Z,25.50
2019-04-11T01:05:54.158Z,23.67
2019-04-11T01:08:23.959Z,27.80
2019-04-11T01:10:52.606Z,22.13
2019-04-11T01:13:21.257Z,24.93
2019-04-11T01:16:00.734Z,22.63
2019-04-11T01:18:29.864Z,29.27
2019-04-11T01:20:58.520Z,26.07
2019-04-11T01:23:27.152Z,22.87
2019-04-11T01:25:56.905Z,27.27
2019-04-11T01:28:26.644Z,26.93
2019-04-11T01:31:03.103Z,26.93
2019-04-11T01:33:31.817Z,29.17
2019-04-11T01:36:00.331Z,24.37
2019-04-11T01:38:30.480Z,26.07
2019-04-11T01:41:00.237Z,26.33
2019-04-11T01:43:29.634Z,28.17
2019-04-11T01:46:00.087Z,27.83
2019-04-11T01:48:31.220Z,27.13
2019-04-11T01:51:01.110Z,26.13
2019-04-11T01:53:30.963Z,22.80
2019-04-11T01:56:00.910Z,30.83
2019-04-11T01:58:30.869Z,31.67
2019-04-11T02:01:08.292Z,30.23
2019-04-11T02:03:41.449Z,27.80
2019-04-11T02:06:09.992Z,33.67
2019-04-11T02:08:39.582Z,28.53
2019-04-11T02:11:09.613Z,27.23
2019-04-11T02:13:39.505Z,24.80
2019-04-11T02:16:08.526Z,30.37
2019-04-11T02:18:37.613Z,28.93
2019-04-11T02:21:06.312Z,26.53
2019-04-11T02:23:48.824Z,28.50
2019-04-11T02:26:22.029Z,27.73
2019-04-11T02:28:50.597Z,29.07
2019-04-11T02:31:20.452Z,27.80
2019-04-11T02:33:51.061Z,31.20
2019-04-11T02:36:20.713Z,30.83
2019-04-11T02:38:54.147Z,31.57
2019-04-11T02:41:21.110Z,28.07
2019-04-11T02:43:51.003Z,32.13
2019-04-11T02:46:31.971Z,32.80
2019-04-11T02:48:52.028Z,31.03
2019-04-11T02:51:20.633Z,26.37
2019-04-11T02:53:49.654Z,26.07
2019-04-11T02:56:19.376Z,30.07
2019-04-11T02:58:48.354Z,32.77
2019-04-11T03:01:17.887Z,27.87
2019-04-11T03:03:47.464Z,27.53
2019-04-11T03:06:17.575Z,33.27
2019-04-11T03:08:48.827Z,30.13
2019-04-11T03:11:19.103Z,28.63
2019-04-11T03:13:52.570Z,28.67
2019-04-11T03:16:34.569Z,31.17
2019-04-11T03:19:09.036Z,31.47
2019-04-11T03:21:23.960Z,30.53
2019-04-11T03:23:52.157Z,28.87
2019-04-11T03:26:21.512Z,28.97
2019-04-11T03:28:54.013Z,26.77
2019-04-11T03:32:05.007Z,31.20
2019-04-11T03:37:06.752Z,32.63
2019-04-11T03:39:11.653Z,29.03
2019-04-11T03:41:38.733Z,29.77
2019-04-11T03:44:01.909Z,28.90
2019-04-11T03:46:37.703Z,32.67
2019-04-11T03:49:03.787Z,32.30
2019-04-11T03:51:23.371Z,27.57
2019-04-11T03:53:53.397Z,28.17
2019-04-11T03:56:24.242Z,31.67
2019-04-11T03:58:53.920Z,29.67
2019-04-11T04:01:25.198Z,27.40
2019-04-11T04:03:55.535Z,30.50
2019-04-11T04:06:25.575Z,30.53
2019-04-11T04:08:55.585Z,25.37
2019-04-11T04:11:27.510Z,30.63
2019-04-11T04:14:17.179Z,29.80
2019-04-11T04:16:56.481Z,33.83
2019-04-11T04:19:43.565Z,33.60
2019-04-11T04:22:17.913Z,29.93
2019-04-11T04:24:49.111Z,30.03
2019-04-11T04:27:17.511Z,28.17
2019-04-11T04:29:49.617Z,26.83
2019-04-11T04:32:16.525Z,32.37
2019-04-11T04:34:46.426Z,30.23
2019-04-11T04:37:17.973Z,33.77
2019-04-11T04:39:47.972Z,30.47
2019-04-11T04:42:25.094Z,29.67
2019-04-11T04:44:48.997Z,29.67
2019-04-11T04:47:25.028Z,29.73
2019-04-11T04:49:48.687Z,31.67
2019-04-11T04:52:18.877Z,31.33
2019-04-11T04:54:48.534Z,32.70
2019-04-11T04:57:18.269Z,24.93
2019-04-11T04:59:48.791Z,38.30
2019-04-11T05:02:17.988Z,30.97
2019-04-11T05:04:47.957Z,29.97
2019-04-11T05:07:17.236Z,31.50
2019-04-11T05:09:46.084Z,32.00
2019-04-11T05:12:16.107Z,33.27
2019-04-11T05:14:45.539Z,29.77
2019-04-11T05:17:14.975Z,36.40
2019-04-11T05:19:44.566Z,37.53
2019-04-11T05:22:13.232Z,32.73
2019-04-11T05:24:41.792Z,33.40
2019-04-11T05:27:15.483Z,36.50
2019-04-11T05:29:44.325Z,33.80
2019-04-11T05:32:13.404Z,31.10
2019-04-11T05:34:43.530Z,32.20
2019-04-11T05:37:40.369Z,31.53
2019-04-11T05:40:21.118Z,30.37
2019-04-11T05:42:39.990Z,38.63
2019-04-11T05:45:15.885Z,34.20
2019-04-11T05:47:40.995Z,29.13
2019-04-11T05:50:24.246Z,36.00
2019-04-11T05:52:52.950Z,31.77
2019-04-11T05:55:21.670Z,27.83
2019-04-11T05:57:50.296Z,31.13
2019-04-11T06:00:23.511Z,32.67
2019-04-11T06:02:53.723Z,31.87
2019-04-11T06:05:27.163Z,35.43
2019-04-11T06:07:57.699Z,36.27
2019-04-11T06:10:45.051Z,35.20
2019-04-11T06:13:22.651Z,35.90
2019-04-11T06:16:00.660Z,31.83
2019-04-11T06:18:45.799Z,32.47
2019-04-11T06:21:19.948Z,33.60
2019-04-11T06:23:49.898Z,33.93
2019-04-11T06:26:23.007Z,32.17
2019-04-11T06:28:55.495Z,33.77
2019-04-11T06:31:34.375Z,32.93
2019-04-11T06:34:07.482Z,31.60
2019-04-11T06:36:41.247Z,33.53
2019-04-11T06:39:12.720Z,35.40
2019-04-11T06:41:46.528Z,30.80
2019-04-11T06:44:19.560Z,33.17
2019-04-11T06:47:02.650Z,28.53
2019-04-11T06:49:38.859Z,32.63
2019-04-11T06:52:09.065Z,32.40
2019-04-11T06:54:48.092Z,33.70
2019-04-11T06:57:21.629Z,35.83
2019-04-11T06:59:52.504Z,31.87
2019-04-11T07:02:24.406Z,30.27
2019-04-11T07:04:56.316Z,30.57
2019-04-11T07:07:28.779Z,36.67
2019-04-11T07:09:59.670Z,30.80
2019-04-11T07:12:30.771Z,34.90
2019-04-11T07:15:14.331Z,37.17
2019-04-11T07:18:01.059Z,33.27
2019-04-11T07:20:43.856Z,31.40
2019-04-11T07:23:33.343Z,33.20
2019-04-11T07:26:22.950Z,34.90
2019-04-11T07:28:56.498Z,34.63
2019-04-11T07:31:46.184Z,35.37
2019-04-11T07:34:32.656Z,34.70
2019-04-11T07:37:16.866Z,41.40
2019-04-11T07:39:47.310Z,35.57
2019-04-11T07:42:23.855Z,35.10
2019-04-11T07:44:55.386Z,34.03
2019-04-11T07:47:29.483Z,33.87
2019-04-11T07:50:00.061Z,33.10
2019-04-11T07:52:32.658Z,35.57
2019-04-11T07:55:00.182Z,37.93
2019-04-11T07:57:45.466Z,41.37
2019-04-11T08:00:36.727Z,36.03
2019-04-11T08:03:14.436Z,37.87
2019-04-11T08:05:50.389Z,41.73
2019-04-11T08:08:21.426Z,74.83
2019-04-11T08:11:09.975Z,54.93
2019-04-11T08:13:56.324Z,61.03
2019-04-11T08:16:44.984Z,45.17
2019-04-11T08:19:31.372Z,45.67
2019-04-11T08:22:08.457Z,30.80
2019-04-11T08:24:38.695Z,38.63
2019-04-11T08:27:09.500Z,41.37
2019-04-11T08:29:38.303Z,34.93
2019-04-11T08:32:09.517Z,36.97
2019-04-11T08:34:43.673Z,41.83
2019-04-11T08:37:13.999Z,43.00
2019-04-11T08:39:42.627Z,34.87
2019-04-11T08:42:29.633Z,33.73
2019-04-11T08:44:58.871Z,33.00
2019-04-11T08:47:41.633Z,39.33
2019-04-11T08:49:59.373Z,41.83
2019-04-11T08:52:38.696Z,43.53
2019-04-11T08:55:10.283Z,32.97
2019-04-11T08:57:41.584Z,35.17
2019-04-11T09:00:19.971Z,42.00
2019-04-11T09:02:51.317Z,39.67
2019-04-11T09:05:24.995Z,37.33
2019-04-11T09:07:56.147Z,33.13
2019-04-11T09:10:46.262Z,44.90
2019-04-11T09:13:17.373Z,38.80
2019-04-11T09:16:03.506Z,37.53
2019-04-11T09:18:34.385Z,37.00
2019-04-11T09:21:07.822Z,32.83
2019-04-11T09:23:37.867Z,42.23
2019-04-11T09:26:18.070Z,40.80
2019-04-11T09:28:46.776Z,40.43
2019-04-11T09:31:27.478Z,37.50
2019-04-11T09:33:57.831Z,40.40
2019-04-11T09:36:43.141Z,35.30
2019-04-11T09:39:28.909Z,33.17
2019-04-11T09:41:59.484Z,41.67
2019-04-11T09:44:30.718Z,37.23
2019-04-11T09:47:17.836Z,39.93
2019-04-11T09:49:48.031Z,37.13
2019-04-11T09:52:31.070Z,37.70
2019-04-11T09:55:10.748Z,34.80
2019-04-11T09:57:41.919Z,36.47
2019-04-11T10:00:16.413Z,38.97
2019-04-11T10:02:58.630Z,40.03
2019-04-11T10:05:29.966Z,38.13
2019-04-11T10:08:16.918Z,36.93
2019-04-11T10:10:47.133Z,33.90
2019-04-11T10:13:18.500Z,45.70
2019-04-11T10:16:05.184Z,37.07
2019-04-11T10:18:40.337Z,40.13
2019-04-11T10:21:10.029Z,38.33
2019-04-11T10:23:56.994Z,40.33
2019-04-11T10:26:27.793Z,35.53
2019-04-11T10:29:06.538Z,40.93
2019-04-11T10:31:36.793Z,37.93
2019-04-11T10:34:09.792Z,37.63
2019-04-11T10:36:40.090Z,40.13
2019-04-11T10:39:18.184Z,39.83
2019-04-11T10:41:50.720Z,41.37
2019-04-11T10:44:23.656Z,38.90
2019-04-11T10:46:53.866Z,38.10
2019-04-11T10:49:40.646Z,41.00
2019-04-11T10:52:20.360Z,35.20
2019-04-11T10:55:07.241Z,41.50
2019-04-11T10:57:52.515Z,42.40
2019-04-11T11:00:37.843Z,41.40
2019-04-11T11:03:20.324Z,42.50
2019-04-11T11:05:51.391Z,40.23
2019-04-11T11:08:24.339Z,44.03
2019-04-11T11:10:55.540Z,38.40
2019-04-11T11:13:29.843Z,42.67
2019-04-11T11:15:58.526Z,39.90
2019-04-11T11:19:15.782Z,43.43
2019-04-11T11:21:15.719Z,42.83
2019-04-11T11:24:05.399Z,43.70
2019-04-11T11:26:33.453Z,41.03
2019-04-11T11:29:20.641Z,39.27
2019-04-11T11:31:54.600Z,52.37
2019-04-11T11:34:25.371Z,41.47
2019-04-11T11:36:56.726Z,39.77
2019-04-11T11:39:33.488Z,38.47
2019-04-11T11:42:22.222Z,39.83
2019-04-11T11:44:59.258Z,46.07
2019-04-11T11:47:45.967Z,41.03
2019-04-11T11:50:19.661Z,37.47
2019-04-11T11:52:54.119Z,43.63
2019-04-11T11:55:43.203Z,40.17
2019-04-11T11:58:30.015Z,49.47
2019-04-11T12:01:04.526Z,42.00
2019-04-11T12:03:48.867Z,43.60
2019-04-11T12:06:22.225Z,46.73
2019-04-11T12:08:51.519Z,38.17
2019-04-11T12:11:21.877Z,39.63
2019-04-11T12:14:09.647Z,45.30
2019-04-11T12:16:39.957Z,44.27
2019-04-11T12:19:18.580Z,46.63
2019-04-11T12:21:48.965Z,38.00
2019-04-11T12:24:36.492Z,41.33
2019-04-11T12:27:10.211Z,41.27
2019-04-11T12:29:50.126Z,47.53
2019-04-11T12:32:22.628Z,46.20
2019-04-11T12:35:08.250Z,37.60
2019-04-11T12:37:45.429Z,38.20
2019-04-11T12:40:32.143Z,43.07
2019-04-11T12:43:02.366Z,45.63
2019-04-11T12:45:38.741Z,45.47
2019-04-11T12:48:07.323Z,47.17
2019-04-11T12:50:53.746Z,43.73
2019-04-11T12:53:22.452Z,40.57
2019-04-11T12:55:52.609Z,46.90
2019-04-11T23:51:41.043Z,22.43
2019-04-11T23:54:09.603Z,17.50
2019-04-11T23:56:38.191Z,19.03
2019-04-11T23:59:06.667Z,16.27
